Air Navigation Services of Czech Republic
Airport: LKNA Updated:  21.11.2019 19:00:26  UTC
 METAR LKNA 21.11. 19:00 ...
METAR LKNA 211900Z 13011KT 3000 BR OVC003 07/06 Q1010 NOSIG RMK YLO YLO=
 TAF LKNA 21.11. 17:00 ...
TAF LKNA 211700Z 2118/2218 13014KT 3000 BR OVC002      PROB40 TEMPO 2118/2206 0800 FG VV001      TEMPO 2206/2218 13016G26KT 7000 BKN003 OVC010=